Terminal Aerodrome Forecast
Issued by NWS

Home | Current Version | Previous Version | Graphics & Text | Print | Product List | Glossary On
Versions: 1 2 3 4 5 6 7 8 9 10 11 12 13 14 15 16 17
000
FTUS43 KBIS 181313 AAA
TAFJMS
TAF AMD
KJMS 181313Z 1813/1912 32014G22KT P6SM SCT035
      TEMPO 1813/1816 OVC030
     FM181600 32017G25KT P6SM SCT035 SCT090
     FM190000 30010KT P6SM FEW250
     FM190400 27006KT P6SM SKC
     FM190800 22006KT P6SM FEW250=

USA.gov is the U.S. government's official web portal to all federal, state and local government web resources and services.